Time;durP1;ratioP1;P1;durP2;ratioP2;P2;SDS_P1;SDS_P2;PMS_P1;PMS_P2;Temp;Humidity;BMP_temperature;BMP_pressure;BME280_temperature;BME280_humidity;BME280_pressure;Samples;Min_cycle;Max_cycle;Signal;HPM_P1;HPM_P2
2021/10/30 00:01:08;;;;;;;10.10;6.25;;;13.30;89.00;;;;;;5050841;28;20083;-71
2021/10/30 00:03:34;;;;;;;11.95;5.93;;;13.30;88.90;;;;;;5050212;28;20356;-71
2021/10/30 00:05:59;;;;;;;9.77;6.20;;;13.20;89.10;;;;;;5050740;28;20166;-71
2021/10/30 00:08:28;;;;;;;9.02;5.40;;;13.20;88.90;;;;;;5053291;28;20094;-71
2021/10/30 00:10:55;;;;;;;13.38;6.53;;;13.20;89.50;;;;;;5054391;28;20056;-71
2021/10/30 00:13:21;;;;;;;10.40;5.63;;;13.10;89.00;;;;;;5054443;28;20044;-72
2021/10/30 00:15:46;;;;;;;12.40;6.82;;;13.20;89.10;;;;;;5054494;28;20437;-71
2021/10/30 00:18:12;;;;;;;11.07;5.97;;;13.10;89.10;;;;;;5054349;28;20044;-70
2021/10/30 00:20:38;;;;;;;11.50;6.60;;;13.10;89.30;;;;;;5054264;28;20095;-70
2021/10/30 00:23:03;;;;;;;11.07;6.30;;;13.10;89.30;;;;;;5054538;28;20029;-70
2021/10/30 00:25:29;;;;;;;11.35;6.38;;;13.00;89.30;;;;;;5054468;28;20033;-70
2021/10/30 00:27:54;;;;;;;15.35;6.85;;;13.00;89.30;;;;;;5054248;28;20041;-71
2021/10/30 00:30:20;;;;;;;13.23;6.68;;;13.00;89.30;;;;;;5054084;28;20041;-70
2021/10/30 00:32:46;;;;;;;12.23;6.72;;;13.00;89.50;;;;;;5053846;28;20347;-70
2021/10/30 00:35:11;;;;;;;14.60;7.00;;;12.90;89.60;;;;;;5054062;28;20336;-69
2021/10/30 00:37:37;;;;;;;11.55;6.43;;;12.90;89.50;;;;;;5053976;28;20100;-70
2021/10/30 00:40:04;;;;;;;9.65;6.70;;;12.90;89.60;;;;;;5053311;28;20036;-71
2021/10/30 00:42:29;;;;;;;12.77;6.93;;;12.90;89.50;;;;;;5053874;28;20363;-70
2021/10/30 00:44:55;;;;;;;9.82;6.50;;;12.90;89.60;;;;;;5053814;28;20063;-70
2021/10/30 00:47:21;;;;;;;10.80;6.55;;;12.90;89.80;;;;;;5052897;28;20044;-70
2021/10/30 00:49:46;;;;;;;12.38;6.82;;;12.90;89.60;;;;;;5052575;28;20025;-70
2021/10/30 00:52:14;;;;;;;12.57;7.72;;;12.90;89.80;;;;;;5054285;28;20132;-70
2021/10/30 00:54:41;;;;;;;13.13;7.38;;;12.80;89.90;;;;;;5052473;28;20044;-70
2021/10/30 00:57:11;;;;;;;12.27;6.97;;;12.70;89.90;;;;;;5052598;28;20493;-70
2021/10/30 00:59:37;;;;;;;11.25;7.47;;;12.70;90.00;;;;;;5053564;28;20033;-71
2021/10/30 01:02:03;;;;;;;14.23;7.63;;;12.70;90.10;;;;;;5053445;28;20108;-70
2021/10/30 01:04:29;;;;;;;12.73;6.65;;;12.70;90.10;;;;;;5052694;28;20036;-70
2021/10/30 01:06:57;;;;;;;15.15;8.27;;;12.70;90.00;;;;;;5052240;28;20033;-70
2021/10/30 01:09:23;;;;;;;13.73;7.00;;;12.70;90.10;;;;;;5053219;28;20040;-70
2021/10/30 01:11:51;;;;;;;16.23;7.53;;;12.60;90.00;;;;;;5052986;28;20057;-70
2021/10/30 01:14:21;;;;;;;12.45;7.38;;;12.60;90.20;;;;;;5053225;28;20029;-70
2021/10/30 01:16:58;;;;;;;13.40;8.10;;;12.50;90.30;;;;;;5053016;28;20043;-70
2021/10/30 01:19:23;;;;;;;11.95;7.25;;;12.50;90.20;;;;;;5053342;28;20029;-70
2021/10/30 01:21:49;;;;;;;15.13;7.38;;;12.60;90.30;;;;;;5053168;28;20040;-70
2021/10/30 01:24:15;;;;;;;14.70;8.20;;;12.50;90.40;;;;;;5051888;28;20072;-70
2021/10/30 01:26:40;;;;;;;11.05;7.35;;;12.40;90.50;;;;;;5053170;28;20036;-70
2021/10/30 01:29:06;;;;;;;11.20;6.68;;;12.50;90.50;;;;;;5052908;28;20051;-69
2021/10/30 01:31:32;;;;;;;13.68;7.20;;;12.50;90.50;;;;;;5052912;28;20119;-70
2021/10/30 01:33:58;;;;;;;14.85;7.15;;;12.40;90.40;;;;;;5052434;28;20032;-71
2021/10/30 01:36:24;;;;;;;12.88;7.55;;;12.40;90.40;;;;;;5039161;28;20033;-71
2021/10/30 01:38:51;;;;;;;11.25;7.28;;;12.40;90.50;;;;;;5032666;28;20030;-71
2021/10/30 01:41:17;;;;;;;10.93;7.43;;;12.40;90.60;;;;;;5032872;28;20120;-69
2021/10/30 01:43:43;;;;;;;16.75;7.47;;;12.40;90.50;;;;;;5032587;28;20033;-70
2021/10/30 01:46:08;;;;;;;10.70;6.88;;;12.40;90.60;;;;;;5033211;28;20014;-71
2021/10/30 01:48:36;;;;;;;14.13;7.88;;;12.30;90.70;;;;;;5032656;28;20109;-70
2021/10/30 01:51:04;;;;;;;13.77;8.13;;;12.40;90.70;;;;;;5031711;28;20059;-72
2021/10/30 01:53:30;;;;;;;16.63;7.55;;;12.30;90.70;;;;;;5032768;28;20395;-71
2021/10/30 01:55:55;;;;;;;14.13;7.55;;;12.30;90.70;;;;;;5032475;28;20105;-70
2021/10/30 01:58:21;;;;;;;11.88;6.55;;;12.30;90.80;;;;;;5032694;28;20116;-70
2021/10/30 02:00:49;;;;;;;14.90;6.97;;;12.30;90.80;;;;;;5032354;28;20357;-70
2021/10/30 02:03:14;;;;;;;13.70;7.35;;;12.20;90.80;;;;;;5032595;28;20025;-70
2021/10/30 02:05:40;;;;;;;12.23;7.38;;;12.20;90.90;;;;;;5032693;28;20080;-70
2021/10/30 02:08:06;;;;;;;13.45;6.22;;;12.20;90.90;;;;;;5032255;28;20034;-70
2021/10/30 02:10:32;;;;;;;13.05;7.68;;;12.20;91.00;;;;;;5032296;28;20022;-69
2021/10/30 02:12:58;;;;;;;13.23;7.78;;;12.10;91.00;;;;;;5032379;28;20045;-69
2021/10/30 02:15:23;;;;;;;17.02;8.15;;;12.10;91.00;;;;;;5031453;28;20033;-69
2021/10/30 02:17:49;;;;;;;13.02;6.93;;;12.20;91.10;;;;;;5032136;28;20026;-70
2021/10/30 02:20:15;;;;;;;11.07;7.07;;;12.10;91.00;;;;;;5032258;28;20345;-70
2021/10/30 02:22:41;;;;;;;12.40;7.38;;;12.10;91.00;;;;;;5032410;28;20053;-71
2021/10/30 02:25:09;;;;;;;12.80;7.07;;;12.20;91.00;;;;;;5032920;28;20067;-70
2021/10/30 02:27:36;;;;;;;13.68;7.38;;;12.10;91.00;;;;;;5031314;28;20025;-71
2021/10/30 02:30:03;;;;;;;12.40;6.53;;;12.20;91.10;;;;;;5030505;28;20056;-71
2021/10/30 02:32:28;;;;;;;11.90;7.15;;;12.10;91.10;;;;;;5031836;28;20030;-71
2021/10/30 02:34:54;;;;;;;17.52;7.63;;;12.10;91.00;;;;;;5032014;28;20095;-71
2021/10/30 02:37:20;;;;;;;12.93;7.68;;;12.10;91.20;;;;;;5032228;28;20505;-71
2021/10/30 02:39:45;;;;;;;14.50;6.90;;;12.10;91.10;;;;;;5031728;28;20029;-72
2021/10/30 02:42:11;;;;;;;13.02;7.57;;;12.10;91.20;;;;;;5031873;28;20026;-71
2021/10/30 02:44:37;;;;;;;15.45;7.43;;;12.10;91.30;;;;;;5031547;28;20371;-69
2021/10/30 02:47:04;;;;;;;12.23;6.90;;;12.00;91.30;;;;;;5031455;28;20021;-69
2021/10/30 02:49:31;;;;;;;14.07;6.95;;;12.10;91.30;;;;;;5031246;28;20037;-70
2021/10/30 02:52:00;;;;;;;11.90;7.13;;;12.10;91.30;;;;;;5031828;28;20526;-70
2021/10/30 02:54:26;;;;;;;12.80;7.05;;;12.10;91.30;;;;;;5031455;28;20259;-70
2021/10/30 02:56:52;;;;;;;12.75;7.03;;;12.10;91.30;;;;;;5031287;28;20026;-70
2021/10/30 02:59:17;;;;;;;13.63;6.70;;;12.10;91.50;;;;;;5031323;28;20033;-70
2021/10/30 03:01:43;;;;;;;13.73;7.20;;;12.10;91.70;;;;;;5031120;28;20025;-70
2021/10/30 03:04:09;;;;;;;16.83;7.47;;;12.10;91.40;;;;;;5031802;28;20018;-70
2021/10/30 03:06:35;;;;;;;12.55;7.10;;;12.10;91.50;;;;;;5031346;28;20337;-70
2021/10/30 03:09:01;;;;;;;12.23;6.55;;;12.10;91.50;;;;;;5030968;28;20029;-70
2021/10/30 03:11:26;;;;;;;12.13;7.28;;;12.00;91.40;;;;;;5030868;28;20064;-70
2021/10/30 03:13:52;;;;;;;12.38;7.65;;;12.10;91.40;;;;;;5031084;28;20065;-71
2021/10/30 03:16:17;;;;;;;13.27;7.63;;;12.00;91.40;;;;;;5031608;28;20387;-71
2021/10/30 03:18:43;;;;;;;12.50;7.55;;;12.00;91.40;;;;;;5030262;28;20498;-70
2021/10/30 03:21:12;;;;;;;13.93;7.35;;;12.10;91.30;;;;;;5031124;28;20038;-70
2021/10/30 03:23:38;;;;;;;13.93;7.55;;;12.10;91.30;;;;;;5031079;28;20044;-70
2021/10/30 03:26:04;;;;;;;14.88;7.53;;;12.10;91.40;;;;;;5031301;28;20029;-70
2021/10/30 03:28:35;;;;;;;12.18;7.22;;;12.10;91.30;;;;;;5031079;28;20035;-71
2021/10/30 03:31:04;;;;;;;10.07;7.10;;;12.10;91.30;;;;;;5031592;28;20018;-69
2021/10/30 03:33:29;;;;;;;12.43;7.80;;;12.00;91.30;;;;;;5031025;28;20331;-70
2021/10/30 03:35:55;;;;;;;12.63;8.20;;;12.00;91.20;;;;;;5030877;28;20104;-70
2021/10/30 03:38:21;;;;;;;13.10;7.63;;;12.00;91.40;;;;;;5031195;28;20032;-71
2021/10/30 03:40:46;;;;;;;13.77;7.38;;;12.00;91.40;;;;;;5030540;28;20135;-70
2021/10/30 03:43:12;;;;;;;16.52;8.25;;;12.00;91.40;;;;;;5031353;28;20034;-70
2021/10/30 03:45:37;;;;;;;16.42;8.00;;;11.90;91.60;;;;;;5031201;28;20406;-71
2021/10/30 03:48:05;;;;;;;14.75;8.50;;;11.90;91.50;;;;;;5030735;28;20038;-70
2021/10/30 03:50:31;;;;;;;15.02;7.93;;;11.90;91.60;;;;;;5030066;28;20064;-71
2021/10/30 03:52:56;;;;;;;16.42;9.05;;;11.80;91.50;;;;;;5030729;28;20067;-69
2021/10/30 03:55:22;;;;;;;17.02;8.65;;;11.80;91.60;;;;;;5031474;28;20517;-70
2021/10/30 03:57:47;;;;;;;15.82;8.13;;;11.80;91.60;;;;;;5030672;28;20449;-70
2021/10/30 04:00:13;;;;;;;16.70;9.05;;;11.80;91.50;;;;;;5030571;28;20057;-70
2021/10/30 04:02:39;;;;;;;20.85;8.80;;;11.80;91.60;;;;;;5030746;28;20033;-70
2021/10/30 04:05:05;;;;;;;15.10;8.60;;;11.80;91.70;;;;;;5030542;28;20064;-70
2021/10/30 04:07:31;;;;;;;13.95;8.20;;;11.80;91.60;;;;;;5030612;28;20049;-69
2021/10/30 04:09:57;;;;;;;14.27;8.40;;;11.80;91.60;;;;;;5030807;28;20494;-71
2021/10/30 04:12:23;;;;;;;16.67;9.35;;;11.80;91.60;;;;;;5029174;28;20053;-70
2021/10/30 04:14:49;;;;;;;16.85;9.50;;;11.70;91.50;;;;;;5030668;28;20047;-71
2021/10/30 04:17:17;;;;;;;17.83;9.15;;;11.70;91.40;;;;;;5030488;28;20029;-71
2021/10/30 04:19:43;;;;;;;16.50;8.40;;;11.70;91.40;;;;;;5030113;28;20471;-70
2021/10/30 04:22:08;;;;;;;17.00;9.77;;;11.80;91.40;;;;;;5030696;28;20033;-71
2021/10/30 04:24:34;;;;;;;16.05;9.30;;;11.80;91.30;;;;;;5030382;28;20037;-70
2021/10/30 04:27:00;;;;;;;14.55;8.95;;;11.80;91.20;;;;;;5030222;28;20083;-70
2021/10/30 04:29:26;;;;;;;14.63;8.57;;;11.70;91.10;;;;;;5030295;28;20033;-69
2021/10/30 04:31:54;;;;;;;17.90;8.90;;;11.80;91.10;;;;;;5030199;28;20435;-70
2021/10/30 04:34:23;;;;;;;;;;;11.70;91.10;;;;;;5030467;28;20520;-70
2021/10/30 04:36:49;;;;;;;16.95;9.20;;;11.70;91.10;;;;;;5030257;28;19944;-71
2021/10/30 04:39:18;;;;;;;14.60;8.23;;;11.80;91.10;;;;;;5029439;28;20040;-71
2021/10/30 04:41:44;;;;;;;16.30;9.80;;;11.80;91.10;;;;;;5030362;28;20034;-71
2021/10/30 04:44:10;;;;;;;16.05;8.75;;;11.80;91.10;;;;;;5030643;28;20418;-71
2021/10/30 04:46:37;;;;;;;17.83;9.75;;;11.80;91.00;;;;;;5029528;28;20045;-71
2021/10/30 04:49:02;;;;;;;15.82;8.95;;;11.80;91.00;;;;;;5030627;28;20037;-71
2021/10/30 04:51:28;;;;;;;17.05;9.15;;;11.80;91.00;;;;;;5030457;28;20033;-71
2021/10/30 04:53:54;;;;;;;16.40;9.40;;;11.90;91.00;;;;;;5032863;28;20088;-70
2021/10/30 04:56:19;;;;;;;17.35;8.98;;;11.80;91.10;;;;;;5033909;28;20029;-71
2021/10/30 04:58:45;;;;;;;14.75;8.75;;;11.80;91.10;;;;;;5033850;28;20021;-71
2021/10/30 05:01:15;;;;;;;15.80;9.02;;;11.80;91.10;;;;;;5034309;28;20021;-70
2021/10/30 05:03:42;;;;;;;19.95;9.65;;;11.80;91.20;;;;;;5033659;28;20038;-71
2021/10/30 05:06:11;;;;;;;17.15;9.57;;;11.70;91.30;;;;;;5033440;28;20034;-69
2021/10/30 05:08:37;;;;;;;18.13;9.35;;;11.70;91.20;;;;;;5033519;28;20076;-71
2021/10/30 05:11:03;;;;;;;18.63;9.93;;;11.70;91.20;;;;;;5033527;28;20021;-70
2021/10/30 05:13:30;;;;;;;17.25;9.30;;;11.70;91.20;;;;;;5033616;28;20038;-70
2021/10/30 05:15:55;;;;;;;17.73;8.68;;;11.70;91.00;;;;;;5032225;28;20432;-70
2021/10/30 05:18:22;;;;;;;16.85;9.77;;;11.70;91.10;;;;;;5033037;28;20030;-71
2021/10/30 05:20:51;;;;;;;19.63;10.73;;;11.70;91.10;;;;;;5033139;28;20041;-70
2021/10/30 05:23:17;;;;;;;18.13;9.38;;;11.70;91.00;;;;;;5033179;28;20179;-70
2021/10/30 05:25:43;;;;;;;13.80;8.40;;;11.70;91.00;;;;;;5033020;28;20475;-70
2021/10/30 05:28:08;;;;;;;20.60;10.07;;;11.70;90.80;;;;;;5032968;28;20375;-69
2021/10/30 05:30:34;;;;;;;16.05;9.50;;;11.70;90.80;;;;;;5032603;28;20503;-70
2021/10/30 05:33:01;;;;;;;19.35;10.65;;;11.80;90.70;;;;;;5032311;28;20549;-70
2021/10/30 05:35:27;;;;;;;18.65;10.27;;;11.70;90.50;;;;;;5031184;28;20052;-70
2021/10/30 05:37:52;;;;;;;17.63;9.35;;;11.80;90.50;;;;;;5031379;28;20021;-70
2021/10/30 05:40:24;;;;;;;16.33;9.45;;;11.70;90.50;;;;;;5031761;28;20047;-71
2021/10/30 05:42:50;;;;;;;16.13;9.63;;;11.70;90.50;;;;;;5032431;28;20037;-70
2021/10/30 05:45:16;;;;;;;18.52;10.65;;;11.70;90.50;;;;;;5031875;28;20026;-70
2021/10/30 05:47:41;;;;;;;17.15;10.60;;;11.70;90.50;;;;;;5032320;28;20040;-69
2021/10/30 05:50:08;;;;;;;16.10;9.65;;;11.70;90.50;;;;;;5032089;28;20356;-70
2021/10/30 05:52:33;;;;;;;20.38;11.18;;;11.70;90.50;;;;;;5032503;28;20108;-70
2021/10/30 05:54:59;;;;;;;17.48;10.63;;;11.70;90.50;;;;;;5031484;28;20171;-69
2021/10/30 05:57:25;;;;;;;17.98;10.32;;;11.70;90.50;;;;;;5032190;28;20034;-71
2021/10/30 05:59:51;;;;;;;20.25;11.07;;;11.60;90.50;;;;;;5031858;28;20041;-70
2021/10/30 06:02:16;;;;;;;20.67;10.32;;;11.60;90.60;;;;;;5032098;28;20033;-70
2021/10/30 06:04:42;;;;;;;19.83;11.02;;;11.60;90.60;;;;;;5030968;28;20029;-70
2021/10/30 06:07:09;;;;;;;20.17;10.60;;;11.60;90.70;;;;;;5032369;28;20032;-71
2021/10/30 06:09:35;;;;;;;17.42;9.60;;;11.60;90.70;;;;;;5030960;28;20090;-70
2021/10/30 06:12:01;;;;;;;17.88;9.45;;;11.60;90.70;;;;;;5032169;28;20073;-70
2021/10/30 06:14:26;;;;;;;16.20;9.82;;;11.60;90.80;;;;;;5032153;28;20331;-71
2021/10/30 06:16:52;;;;;;;19.98;10.40;;;11.60;90.90;;;;;;5032328;28;20064;-71
2021/10/30 06:19:18;;;;;;;22.35;10.85;;;11.60;90.80;;;;;;5032662;28;20037;-72
2021/10/30 06:21:44;;;;;;;19.20;9.77;;;11.60;91.00;;;;;;5036523;28;20502;-73
2021/10/30 06:24:09;;;;;;;17.55;10.18;;;11.60;91.00;;;;;;5052300;28;20029;-73
2021/10/30 06:26:35;;;;;;;16.50;9.68;;;11.60;90.90;;;;;;5052593;28;20037;-73
2021/10/30 06:29:00;;;;;;;18.40;10.07;;;11.60;90.60;;;;;;5052247;28;20157;-73
2021/10/30 06:31:27;;;;;;;20.35;11.63;;;11.60;90.80;;;;;;5052842;28;20040;-73
2021/10/30 06:33:52;;;;;;;20.77;11.00;;;11.60;90.70;;;;;;5052292;28;20519;-72
2021/10/30 06:36:18;;;;;;;22.52;12.15;;;11.60;90.80;;;;;;5050905;28;20125;-72
2021/10/30 06:38:44;;;;;;;19.38;10.77;;;11.60;90.80;;;;;;5052506;28;20045;-72
2021/10/30 06:41:12;;;;;;;21.55;11.02;;;11.60;91.00;;;;;;5051057;28;20454;-72
2021/10/30 06:43:39;;;;;;;25.50;13.98;;;11.50;91.00;;;;;;5050986;28;20128;-71
2021/10/30 06:46:05;;;;;;;17.25;10.50;;;11.50;91.00;;;;;;5052602;28;20017;-73
2021/10/30 06:48:30;;;;;;;20.50;10.68;;;11.60;91.00;;;;;;5051830;28;20029;-73
2021/10/30 06:50:56;;;;;;;15.98;9.52;;;11.60;91.10;;;;;;5050580;28;20478;-73
2021/10/30 06:53:22;;;;;;;19.27;10.20;;;11.60;91.20;;;;;;5052126;28;20079;-73
2021/10/30 06:55:48;;;;;;;21.63;10.05;;;11.60;91.10;;;;;;5051866;28;20291;-71
2021/10/30 06:58:16;;;;;;;19.13;9.75;;;11.60;90.70;;;;;;5052207;28;20100;-71
2021/10/30 07:00:42;;;;;;;19.25;9.27;;;11.70;90.70;;;;;;5051812;28;20025;-71
2021/10/30 07:03:08;;;;;;;17.63;9.48;;;11.70;90.70;;;;;;5051638;28;20025;-71
2021/10/30 07:05:35;;;;;;;16.70;9.98;;;11.70;90.60;;;;;;5051272;28;20037;-71
2021/10/30 07:08:00;;;;;;;16.52;9.35;;;11.70;90.80;;;;;;5051477;28;20486;-72
2021/10/30 07:10:26;;;;;;;15.20;9.27;;;11.70;90.80;;;;;;5051834;28;20029;-72
2021/10/30 07:12:52;;;;;;;17.35;9.80;;;11.70;90.90;;;;;;5051553;28;20100;-72
2021/10/30 07:15:17;;;;;;;15.90;9.18;;;11.70;91.00;;;;;;5051086;28;20029;-71
2021/10/30 07:17:43;;;;;;;16.90;9.68;;;11.70;90.90;;;;;;5051795;28;20082;-73
2021/10/30 07:20:10;;;;;;;15.60;9.43;;;11.80;90.90;;;;;;5051237;28;20343;-72
2021/10/30 07:22:50;;;;;;;18.08;8.65;;;11.80;90.70;;;;;;5051275;28;20025;-73
2021/10/30 07:25:18;;;;;;;16.20;9.10;;;11.70;90.70;;;;;;5051699;28;20021;-73
2021/10/30 07:27:43;;;;;;;14.48;8.68;;;11.80;90.80;;;;;;5051426;28;20447;-71
2021/10/30 07:30:10;;;;;;;13.63;8.38;;;11.80;90.70;;;;;;5050880;28;20071;-72
2021/10/30 07:32:36;;;;;;;15.80;8.93;;;11.80;90.80;;;;;;5050810;28;20049;-75
2021/10/30 07:35:02;;;;;;;16.27;8.57;;;11.90;90.70;;;;;;5050886;28;20123;-71
2021/10/30 07:37:29;;;;;;;15.82;9.60;;;12.00;90.80;;;;;;5050730;28;20025;-72
2021/10/30 07:39:54;;;;;;;17.02;9.55;;;12.10;90.80;;;;;;5050605;28;20116;-73
2021/10/30 07:42:20;;;;;;;17.65;9.70;;;12.10;90.50;;;;;;5050686;28;20159;-71
2021/10/30 07:44:46;;;;;;;15.73;8.68;;;12.10;90.60;;;;;;5050555;28;20056;-70
2021/10/30 07:47:12;;;;;;;16.08;9.13;;;12.20;90.50;;;;;;5048448;28;20112;-70
2021/10/30 07:49:39;;;;;;;16.48;7.93;;;12.20;90.40;;;;;;5030572;28;20033;-71
2021/10/30 07:52:06;;;;;;;17.25;9.00;;;12.30;90.50;;;;;;5030920;28;20037;-71
2021/10/30 07:54:33;;;;;;;15.57;8.68;;;12.40;90.50;;;;;;5029624;28;20025;-71
2021/10/30 07:56:59;;;;;;;17.83;8.02;;;12.50;90.30;;;;;;5030718;28;20101;-70
2021/10/30 07:59:25;;;;;;;22.02;13.00;;;12.50;90.90;;;;;;5030514;28;20103;-72
2021/10/30 08:01:50;;;;;;;15.63;9.05;;;12.60;90.50;;;;;;5030812;28;20463;-72
2021/10/30 08:04:17;;;;;;;17.40;8.98;;;12.70;90.20;;;;;;5030843;28;20055;-71
2021/10/30 08:06:44;;;;;;;13.57;7.50;;;12.80;90.20;;;;;;5030394;28;20030;-72
2021/10/30 08:09:09;;;;;;;13.80;8.18;;;12.90;90.00;;;;;;5030388;28;20473;-71
2021/10/30 08:11:35;;;;;;;14.88;8.00;;;13.00;89.90;;;;;;5029998;28;20030;-71
2021/10/30 08:14:01;;;;;;;13.77;7.85;;;13.10;89.70;;;;;;5029204;28;20655;-73
2021/10/30 08:16:27;;;;;;;16.50;7.90;;;13.20;88.90;;;;;;5030655;28;20033;-71
2021/10/30 08:18:52;;;;;;;13.70;8.18;;;13.30;88.50;;;;;;5030459;28;20424;-71
2021/10/30 08:21:19;;;;;;;12.82;7.88;;;13.40;87.90;;;;;;5030195;28;20041;-71
2021/10/30 08:23:46;;;;;;;13.57;8.00;;;13.50;88.10;;;;;;5030193;28;20056;-71
2021/10/30 08:26:12;;;;;;;15.45;8.52;;;13.60;87.50;;;;;;5030146;28;20029;-71
2021/10/30 08:28:38;;;;;;;16.80;9.27;;;13.80;88.40;;;;;;5032346;28;20061;-72
2021/10/30 08:31:04;;;;;;;17.23;8.98;;;13.90;87.30;;;;;;5034587;28;20075;-72
2021/10/30 08:33:29;;;;;;;16.75;9.50;;;14.00;86.80;;;;;;5032761;28;20044;-71
2021/10/30 08:35:55;;;;;;;17.52;10.02;;;14.10;86.50;;;;;;5033962;28;20037;-72
2021/10/30 08:38:20;;;;;;;16.15;9.70;;;14.20;86.60;;;;;;5033893;28;20025;-71
2021/10/30 08:40:46;;;;;;;15.48;9.07;;;14.10;85.60;;;;;;5033633;28;20025;-72
2021/10/30 08:43:30;;;;;;;16.55;9.65;;;14.20;85.50;;;;;;5034256;28;20125;-71
2021/10/30 08:45:57;;;;;;;18.15;10.48;;;14.30;86.10;;;;;;5033796;28;20042;-73
2021/10/30 08:48:26;;;;;;;17.10;10.60;;;14.30;85.10;;;;;;5033826;28;20537;-73
2021/10/30 08:50:53;;;;;;;;;;;14.20;84.90;;;;;;5034454;28;20345;-75
2021/10/30 08:53:20;;;;;;;18.90;9.38;;;14.20;85.10;;;;;;5033670;28;19910;-70
2021/10/30 08:55:47;;;;;;;15.95;9.45;;;14.20;85.50;;;;;;5033578;28;20032;-71
2021/10/30 08:58:14;;;;;;;16.80;9.90;;;14.20;84.80;;;;;;5033956;28;20018;-71
2021/10/30 09:00:52;;;;;;;19.73;9.40;;;14.10;85.00;;;;;;5033488;28;20091;-72
2021/10/30 09:03:19;;;;;;;15.90;9.27;;;14.10;85.70;;;;;;5033628;28;20038;-72
2021/10/30 09:05:48;;;;;;;13.90;8.73;;;14.10;85.60;;;;;;5033533;28;20037;-72
2021/10/30 09:08:15;;;;;;;16.50;8.95;;;14.10;85.80;;;;;;5033479;28;20112;-70
2021/10/30 09:10:47;;;;;;;17.70;9.05;;;14.00;85.30;;;;;;5033264;28;20048;-71
2021/10/30 09:13:13;;;;;;;15.13;8.82;;;13.90;86.50;;;;;;5033597;28;20072;-70
2021/10/30 09:15:47;;;;;;;16.10;8.93;;;14.00;86.00;;;;;;5033355;28;20037;-72
2021/10/30 09:18:32;;;;;;;15.23;8.98;;;14.00;86.20;;;;;;5033243;28;20426;-70
2021/10/30 09:21:15;;;;;;;20.48;8.45;;;14.00;86.10;;;;;;5033040;28;20185;-70
2021/10/30 09:23:44;;;;;;;12.95;7.85;;;14.00;86.00;;;;;;5032103;28;20117;-71
2021/10/30 09:26:31;;;;;;;15.00;8.02;;;14.10;86.40;;;;;;5033161;28;20061;-72
2021/10/30 09:29:06;;;;;;;12.13;7.38;;;14.20;86.30;;;;;;5033079;28;20045;-71
2021/10/30 09:31:31;;;;;;;12.98;7.60;;;14.20;86.20;;;;;;5031628;28;20034;-73
2021/10/30 09:34:00;;;;;;;13.27;7.13;;;14.30;86.50;;;;;;5033007;28;20037;-72
2021/10/30 09:36:31;;;;;;;12.55;6.63;;;14.30;86.30;;;;;;5031617;28;20033;-71
2021/10/30 09:39:05;;;;;;;11.75;6.78;;;14.30;86.30;;;;;;5031607;28;20041;-72
2021/10/30 09:41:33;;;;;;;13.32;7.72;;;14.30;86.70;;;;;;5032758;28;20036;-74
2021/10/30 09:44:07;;;;;;;11.02;6.65;;;14.40;86.60;;;;;;5032759;28;20040;-72
2021/10/30 09:46:35;;;;;;;10.02;6.55;;;14.50;86.60;;;;;;5031534;28;20091;-71
2021/10/30 09:49:21;;;;;;;8.98;5.85;;;14.70;86.70;;;;;;5032943;28;20032;-71
2021/10/30 09:51:49;;;;;;;11.07;5.88;;;14.80;86.60;;;;;;5031440;28;20116;-73
2021/10/30 09:54:30;;;;;;;16.65;5.57;;;14.90;86.50;;;;;;5032674;28;20025;-71
2021/10/30 09:56:55;;;;;;;8.68;5.22;;;14.90;86.60;;;;;;5032837;28;20034;-73
2021/10/30 09:59:24;;;;;;;9.15;5.60;;;15.00;86.70;;;;;;5032316;28;20363;-73
2021/10/30 10:01:50;;;;;;;11.55;6.20;;;15.00;86.40;;;;;;5032371;28;20341;-73
2021/10/30 10:04:18;;;;;;;10.68;5.40;;;15.10;86.60;;;;;;5032842;28;20029;-73
2021/10/30 10:06:50;;;;;;;12.55;5.85;;;15.00;86.40;;;;;;5032496;28;20101;-73
2021/10/30 10:09:19;;;;;;;8.65;5.43;;;15.00;86.40;;;;;;5032306;28;20025;-72
2021/10/30 10:11:46;;;;;;;10.23;4.63;;;15.00;86.00;;;;;;5031215;28;20131;-73
2021/10/30 10:14:13;;;;;;;8.95;5.03;;;15.00;85.60;;;;;;5032729;28;20033;-73
2021/10/30 10:16:38;;;;;;;10.88;5.20;;;14.90;85.30;;;;;;5032268;28;20133;-73
2021/10/30 10:19:04;;;;;;;8.57;4.93;;;14.90;85.40;;;;;;5032563;28;20469;-72
2021/10/30 10:21:34;;;;;;;10.98;4.85;;;14.90;85.40;;;;;;5032116;28;20562;-72
2021/10/30 10:24:10;;;;;;;12.27;7.30;;;14.90;86.00;;;;;;5030990;28;20041;-72
2021/10/30 10:26:45;;;;;;;7.32;4.80;;;14.90;86.00;;;;;;5031813;28;20075;-73
2021/10/30 10:29:12;;;;;;;7.07;4.55;;;14.90;86.00;;;;;;5032330;28;20033;-74
2021/10/30 10:31:49;;;;;;;9.65;5.38;;;15.00;86.20;;;;;;5031991;28;20030;-72
2021/10/30 10:34:26;;;;;;;57.23;26.27;;;15.00;86.00;;;;;;5032582;28;20033;-72
2021/10/30 10:37:24;;;;;;;19.17;11.80;;;15.00;86.00;;;;;;5031867;28;20040;-73
2021/10/30 10:39:54;;;;;;;14.25;7.30;;;15.10;85.90;;;;;;4987858;28;20030;-73
2021/10/30 10:42:35;;;;;;;13.07;5.93;;;15.20;85.50;;;;;;5030702;28;20113;-73
2021/10/30 10:45:03;;;;;;;9.88;4.97;;;15.30;85.20;;;;;;5031664;28;20029;-73
2021/10/30 10:47:38;;;;;;;10.80;4.55;;;15.30;85.10;;;;;;5031908;28;20112;-73
2021/10/30 10:50:27;;;;;;;7.85;4.78;;;15.30;84.80;;;;;;5031008;28;20041;-72
2021/10/30 10:52:59;;;;;;;8.43;4.30;;;15.30;85.10;;;;;;5031641;28;20102;-73
2021/10/30 10:55:26;;;;;;;10.25;3.85;;;15.20;85.20;;;;;;5030867;28;20029;-74
2021/10/30 10:58:02;;;;;;;6.78;3.97;;;15.20;85.70;;;;;;5031672;28;20063;-72
2021/10/30 11:00:29;;;;;;;10.65;4.75;;;15.20;85.50;;;;;;5031461;28;20036;-74
2021/10/30 11:02:55;;;;;;;8.23;4.40;;;15.10;85.50;;;;;;5031579;28;20030;-73
2021/10/30 11:05:21;;;;;;;7.20;4.18;;;15.10;85.90;;;;;;5030469;28;20203;-72
2021/10/30 11:07:49;;;;;;;8.02;4.30;;;15.20;85.60;;;;;;5031563;28;20029;-72
2021/10/30 11:10:32;;;;;;;9.98;4.15;;;15.10;85.50;;;;;;5031979;28;20029;-72
2021/10/30 11:12:58;;;;;;;8.65;4.10;;;15.10;85.70;;;;;;5030232;28;20077;-72
2021/10/30 11:15:38;;;;;;;6.88;4.15;;;15.20;85.70;;;;;;5031483;28;20504;-72
2021/10/30 11:18:09;;;;;;;5.38;3.83;;;15.10;85.20;;;;;;5031377;28;20044;-72
2021/10/30 11:20:40;;;;;;;11.07;5.13;;;15.10;84.80;;;;;;5030129;28;20429;-74
2021/10/30 11:23:17;;;;;;;7.55;4.18;;;15.10;85.00;;;;;;5031364;28;20112;-73
2021/10/30 11:25:42;;;;;;;7.90;4.60;;;15.10;84.60;;;;;;5031099;28;20079;-72
2021/10/30 11:28:09;;;;;;;7.32;4.32;;;15.10;84.00;;;;;;5031489;28;20456;-73
2021/10/30 11:30:42;;;;;;;7.30;4.75;;;15.10;84.40;;;;;;5029838;28;20041;-73
2021/10/30 11:33:28;;;;;;;8.38;4.72;;;15.20;83.70;;;;;;5031122;28;20471;-72
2021/10/30 11:36:07;;;;;;;11.32;4.68;;;15.10;84.50;;;;;;5031273;28;20042;-70
2021/10/30 11:39:00;;;;;;;7.65;4.95;;;15.10;83.90;;;;;;5031171;28;20037;-72
2021/10/30 11:41:30;;;;;;;8.15;4.65;;;15.10;83.80;;;;;;5026865;28;20026;-71
2021/10/30 11:44:05;;;;;;;8.73;4.85;;;15.10;83.00;;;;;;5030868;28;20030;-71
2021/10/30 11:46:32;;;;;;;8.25;4.88;;;15.10;82.60;;;;;;5030845;28;20030;-72
2021/10/30 11:49:00;;;;;;;8.35;5.57;;;15.10;83.00;;;;;;5031086;28;20026;-73
2021/10/30 11:51:31;;;;;;;9.75;5.88;;;15.00;83.50;;;;;;5030830;28;20121;-71
2021/10/30 11:53:58;;;;;;;10.38;5.57;;;15.10;83.10;;;;;;5030516;28;20471;-69
2021/10/30 11:56:26;;;;;;;10.00;5.45;;;15.00;83.10;;;;;;5030125;28;20044;-72
2021/10/30 11:58:54;;;;;;;;;;;15.10;83.00;;;;;;5029920;28;20025;-74
2021/10/30 12:01:26;;;;;;;;;;;15.10;83.20;;;;;;5031666;28;19897;-73
2021/10/30 12:04:00;;;;;;;8.75;5.40;;;15.10;83.00;;;;;;5032482;28;20488;-74
2021/10/30 12:06:27;;;;;;;10.85;6.40;;;15.10;82.60;;;;;;5035051;28;20040;-72
2021/10/30 12:08:56;;;;;;;8.98;6.10;;;15.10;81.80;;;;;;5034585;28;20064;-71
2021/10/30 12:11:21;;;;;;;10.32;5.90;;;15.00;81.10;;;;;;5034954;28;20056;-71
2021/10/30 12:13:52;;;;;;;10.85;5.97;;;15.00;80.00;;;;;;5034244;28;20081;-75
2021/10/30 12:16:18;;;;;;;11.43;6.93;;;15.00;79.80;;;;;;5035121;28;20067;-73
2021/10/30 12:18:44;;;;;;;12.55;7.00;;;15.00;79.30;;;;;;5034979;28;20394;-71
2021/10/30 12:21:13;;;;;;;13.27;6.93;;;15.00;79.50;;;;;;5034194;28;20125;-72
2021/10/30 12:24:02;;;;;;;13.52;7.45;;;15.00;78.60;;;;;;5033429;28;20096;-75
2021/10/30 12:26:28;;;;;;;13.70;6.95;;;15.00;78.30;;;;;;5034365;28;20668;-71
2021/10/30 12:29:24;;;;;;;13.20;7.85;;;15.00;78.20;;;;;;5033839;28;20230;-75
2021/10/30 12:32:02;;;;;;;11.23;7.13;;;15.00;78.30;;;;;;5034081;28;20037;-73
2021/10/30 12:34:30;;;;;;;12.77;6.82;;;15.10;78.70;;;;;;5034630;28;20030;-72
2021/10/30 12:36:56;;;;;;;;;;;15.10;77.60;;;;;;5034592;28;20092;-72
2021/10/30 12:39:23;;;;;;;18.27;9.18;;;15.10;78.00;;;;;;5034234;28;19979;-74
2021/10/30 12:41:54;;;;;;;14.65;7.22;;;15.10;77.40;;;;;;5034021;28;20087;-72